Time;durP1;ratioP1;P1;durP2;ratioP2;P2;SDS_P1;SDS_P2;PMS_P1;PMS_P2;Temp;Humidity;BMP_temperature;BMP_pressure;BME280_temperature;BME280_humidity;BME280_pressure;Samples;Min_cycle;Max_cycle;Signal;HPM_P1;HPM_P2
2023/07/13 00:01:27;;;;;;;3.50;1.20;;;17.30;56.10;;;;;;5078613;28;20406;-73
2023/07/13 00:03:53;;;;;;;4.80;1.60;;;17.30;56.30;;;;;;5085239;28;20463;-73
2023/07/13 00:06:20;;;;;;;2.10;1.20;;;17.20;56.50;;;;;;5070113;28;20923;-70
2023/07/13 00:08:47;;;;;;;1.90;1.00;;;17.20;56.80;;;;;;5102512;28;20457;-70
2023/07/13 00:11:14;;;;;;;3.03;1.27;;;17.20;56.90;;;;;;5098997;28;20426;-73
2023/07/13 00:13:40;;;;;;;3.43;1.40;;;17.20;56.90;;;;;;5098560;28;20422;-71
2023/07/13 00:16:07;;;;;;;2.43;1.13;;;17.20;57.20;;;;;;5084499;28;20557;-71
2023/07/13 00:18:32;;;;;;;1.80;1.30;;;17.20;57.30;;;;;;5078439;28;20457;-71
2023/07/13 00:21:05;;;;;;;3.13;1.20;;;17.20;57.40;;;;;;5085637;28;20531;-71
2023/07/13 00:23:39;;;;;;;3.50;1.67;;;17.20;57.50;;;;;;5098493;28;20222;-72
2023/07/13 00:26:07;;;;;;;3.90;1.27;;;17.30;57.50;;;;;;5098604;28;20418;-71
2023/07/13 00:28:33;;;;;;;4.20;1.30;;;17.30;57.50;;;;;;5097797;28;20462;-70
2023/07/13 00:30:59;;;;;;;3.30;1.70;;;17.30;57.40;;;;;;5083924;28;20869;-70
2023/07/13 00:33:25;;;;;;;3.20;1.40;;;17.30;57.50;;;;;;5077849;28;20411;-71
2023/07/13 00:35:50;;;;;;;3.80;1.50;;;17.30;57.60;;;;;;5090912;28;20180;-71
2023/07/13 00:38:16;;;;;;;2.87;1.10;;;17.30;57.60;;;;;;5098639;28;20199;-71
2023/07/13 00:40:42;;;;;;;4.10;1.30;;;17.30;57.70;;;;;;5097452;28;20193;-72
2023/07/13 00:43:18;;;;;;;2.17;1.30;;;17.20;57.80;;;;;;5098435;28;20236;-72
2023/07/13 00:45:43;;;;;;;3.07;0.90;;;17.20;57.90;;;;;;5061691;28;20874;-71
2023/07/13 00:48:11;;;;;;;3.00;1.37;;;17.10;58.10;;;;;;5086279;28;20418;-71
2023/07/13 00:50:37;;;;;;;2.33;0.87;;;17.10;58.20;;;;;;5079283;28;20540;-70
2023/07/13 00:53:03;;;;;;;1.40;0.80;;;17.00;58.40;;;;;;5098549;28;20441;-71
2023/07/13 00:55:29;;;;;;;2.00;1.07;;;16.90;58.50;;;;;;5097593;28;20738;-71
2023/07/13 00:57:55;;;;;;;2.93;1.27;;;16.90;58.70;;;;;;5097673;28;20188;-72
2023/07/13 01:00:22;;;;;;;3.13;1.10;;;16.80;58.90;;;;;;5073496;28;20443;-69
2023/07/13 01:02:49;;;;;;;2.03;0.90;;;16.70;59.10;;;;;;5076545;28;20881;-69
2023/07/13 01:05:19;;;;;;;2.33;1.10;;;16.70;59.50;;;;;;5059519;28;20975;-70
2023/07/13 01:07:45;;;;;;;2.60;0.90;;;16.70;59.60;;;;;;5065940;28;20757;-71
2023/07/13 01:10:29;;;;;;;2.93;1.10;;;16.60;59.70;;;;;;5079293;28;20551;-71
2023/07/13 01:12:55;;;;;;;2.93;1.30;;;16.60;60.10;;;;;;5097598;28;20478;-71
2023/07/13 01:15:43;;;;;;;1.93;1.00;;;16.50;60.30;;;;;;5069508;28;20447;-72
2023/07/13 01:18:16;;;;;;;2.43;0.97;;;16.40;60.90;;;;;;5097678;28;20841;-71
2023/07/13 01:20:53;;;;;;;4.73;1.00;;;16.40;61.40;;;;;;5096574;28;20453;-71
2023/07/13 01:23:19;;;;;;;2.40;1.00;;;16.40;61.50;;;;;;5097430;28;20426;-71
2023/07/13 01:25:45;;;;;;;2.13;0.97;;;16.40;61.80;;;;;;5097171;28;20408;-71
2023/07/13 01:28:11;;;;;;;3.60;1.50;;;16.40;62.10;;;;;;5096881;28;20212;-70
2023/07/13 01:30:39;;;;;;;3.50;1.30;;;16.30;62.60;;;;;;5082044;28;20983;-70
2023/07/13 01:33:07;;;;;;;2.53;0.90;;;16.30;63.10;;;;;;5091971;28;20422;-72
2023/07/13 01:35:33;;;;;;;2.07;1.23;;;16.30;63.70;;;;;;5097357;28;20936;-70
2023/07/13 01:38:01;;;;;;;2.97;1.10;;;16.30;64.20;;;;;;5097337;28;20410;-70
2023/07/13 01:40:26;;;;;;;2.07;1.17;;;16.20;64.30;;;;;;5096173;28;20249;-71
2023/07/13 01:42:52;;;;;;;3.37;1.00;;;16.20;64.60;;;;;;5097682;28;20405;-71
2023/07/13 01:45:19;;;;;;;1.90;0.70;;;16.20;65.10;;;;;;5081015;28;20206;-71
2023/07/13 01:47:46;;;;;;;2.77;1.03;;;16.20;65.60;;;;;;5073454;28;20768;-71
2023/07/13 01:50:12;;;;;;;5.23;1.27;;;16.20;66.10;;;;;;5096267;28;20461;-71
2023/07/13 01:52:37;;;;;;;3.83;1.40;;;16.20;66.50;;;;;;5078650;28;20266;-71
2023/07/13 01:55:03;;;;;;;2.17;1.10;;;16.10;67.10;;;;;;5078999;28;20332;-72
2023/07/13 01:57:29;;;;;;;2.67;1.20;;;16.10;67.60;;;;;;5096377;28;20320;-71
2023/07/13 01:59:54;;;;;;;1.17;0.87;;;16.10;68.10;;;;;;5074164;28;20751;-71
2023/07/13 02:02:20;;;;;;;3.03;1.30;;;16.00;69.00;;;;;;5065178;28;20185;-71
2023/07/13 02:04:46;;;;;;;3.03;1.27;;;16.00;69.90;;;;;;5095826;28;20455;-71
2023/07/13 02:07:12;;;;;;;3.40;1.30;;;15.90;70.60;;;;;;5097002;28;20172;-72
2023/07/13 02:09:37;;;;;;;4.60;1.10;;;15.90;71.40;;;;;;5078398;28;20211;-71
2023/07/13 02:12:03;;;;;;;2.00;1.13;;;15.90;72.10;;;;;;5078516;28;20168;-70
2023/07/13 02:14:32;;;;;;;2.63;1.13;;;15.90;72.70;;;;;;5055254;28;20588;-71
2023/07/13 02:16:58;;;;;;;6.73;2.00;;;15.80;73.40;;;;;;5055829;28;20457;-70
2023/07/13 02:19:23;;;;;;;2.07;1.10;;;15.80;74.30;;;;;;5064053;28;20205;-70
2023/07/13 02:21:49;;;;;;;3.17;1.40;;;15.80;75.00;;;;;;5096321;28;20188;-71
2023/07/13 02:24:17;;;;;;;3.10;1.30;;;15.80;75.90;;;;;;5096212;28;20184;-71
2023/07/13 02:26:44;;;;;;;2.07;1.07;;;15.80;76.40;;;;;;5095601;28;20553;-71
2023/07/13 02:29:10;;;;;;;4.70;1.63;;;15.80;76.70;;;;;;5077612;28;20465;-71
2023/07/13 02:31:35;;;;;;;4.33;1.37;;;15.90;77.10;;;;;;5080780;28;20724;-71
2023/07/13 02:34:01;;;;;;;3.47;1.10;;;15.80;77.30;;;;;;5100457;28;20425;-71
2023/07/13 02:36:27;;;;;;;1.93;1.43;;;15.80;77.80;;;;;;5099542;28;20180;-71
2023/07/13 02:38:52;;;;;;;2.40;0.93;;;15.80;78.30;;;;;;5078420;28;20433;-71
2023/07/13 02:41:18;;;;;;;3.60;1.53;;;15.80;78.80;;;;;;5096036;28;20253;-71
2023/07/13 02:43:45;;;;;;;3.90;1.40;;;15.80;79.10;;;;;;5095947;28;20176;-71
2023/07/13 02:46:11;;;;;;;4.23;1.50;;;15.80;79.70;;;;;;5063701;28;20426;-71
2023/07/13 02:48:38;;;;;;;2.77;1.13;;;15.80;79.80;;;;;;5095259;28;20246;-71
2023/07/13 02:51:04;;;;;;;3.17;1.90;;;15.90;79.90;;;;;;5095286;28;20208;-71
2023/07/13 02:53:30;;;;;;;3.00;1.40;;;15.90;80.10;;;;;;5095421;28;20428;-71
2023/07/13 02:55:56;;;;;;;3.67;1.70;;;15.90;80.20;;;;;;5077384;28;20195;-71
2023/07/13 02:58:22;;;;;;;3.87;2.00;;;15.80;80.40;;;;;;5060730;28;20447;-71
2023/07/13 03:00:49;;;;;;;3.10;1.33;;;15.80;81.20;;;;;;5078897;28;20267;-70
2023/07/13 03:03:16;;;;;;;2.40;1.17;;;15.80;81.60;;;;;;5070560;28;20208;-70
2023/07/13 03:05:44;;;;;;;2.70;1.30;;;15.80;82.10;;;;;;5094088;28;20718;-71
2023/07/13 03:08:11;;;;;;;1.80;1.10;;;15.70;82.70;;;;;;5076818;28;20858;-70
2023/07/13 03:10:39;;;;;;;2.17;1.53;;;15.70;83.40;;;;;;5076829;28;20463;-70
2023/07/13 03:13:06;;;;;;;2.83;1.30;;;15.70;83.70;;;;;;5061334;28;20402;-70
2023/07/13 03:15:33;;;;;;;3.40;1.63;;;15.70;83.70;;;;;;5057897;28;20440;-72
2023/07/13 03:17:59;;;;;;;2.77;1.50;;;15.80;83.90;;;;;;5037252;28;20402;-72
2023/07/13 03:20:25;;;;;;;2.50;1.33;;;15.80;83.70;;;;;;5084738;28;20324;-71
2023/07/13 03:22:50;;;;;;;3.07;1.27;;;15.80;83.80;;;;;;5076880;28;20407;-70
2023/07/13 03:25:17;;;;;;;3.17;1.30;;;15.80;84.10;;;;;;5094923;28;20188;-71
2023/07/13 03:27:42;;;;;;;3.53;2.07;;;15.70;84.50;;;;;;5076945;28;20925;-72
2023/07/13 03:30:09;;;;;;;1.97;0.90;;;15.70;85.00;;;;;;5068368;28;20243;-71
2023/07/13 03:32:35;;;;;;;2.57;1.40;;;15.60;85.80;;;;;;5069310;28;20494;-71
2023/07/13 03:35:01;;;;;;;4.57;1.60;;;15.60;86.20;;;;;;5076803;28;20512;-71
2023/07/13 03:37:28;;;;;;;2.93;1.40;;;15.60;86.50;;;;;;5060104;28;20265;-71
2023/07/13 03:39:54;;;;;;;3.77;1.70;;;15.60;86.30;;;;;;5076360;28;20492;-72
2023/07/13 03:42:20;;;;;;;2.37;1.73;;;15.60;86.10;;;;;;5095260;28;20413;-72
2023/07/13 03:44:52;;;;;;;2.50;1.50;;;15.70;86.00;;;;;;5091708;28;20576;-70
2023/07/13 03:47:17;;;;;;;3.13;1.23;;;15.60;86.00;;;;;;5086129;28;20540;-72
2023/07/13 03:49:45;;;;;;;2.63;1.60;;;15.60;85.90;;;;;;5094627;28;20535;-70
2023/07/13 03:52:11;;;;;;;4.30;1.73;;;15.60;85.80;;;;;;5094602;28;20404;-70
2023/07/13 03:54:36;;;;;;;3.90;1.33;;;15.60;86.20;;;;;;5079720;28;20413;-70
2023/07/13 03:57:02;;;;;;;3.07;1.10;;;15.60;86.20;;;;;;5081358;28;20184;-71
2023/07/13 03:59:30;;;;;;;3.50;1.77;;;15.60;86.00;;;;;;5063424;28;20204;-72
2023/07/13 04:01:55;;;;;;;2.60;1.37;;;15.60;86.10;;;;;;5037938;28;20892;-71
2023/07/13 04:04:21;;;;;;;3.50;1.77;;;15.70;86.20;;;;;;5054579;28;20563;-71
2023/07/13 04:06:47;;;;;;;3.57;1.80;;;15.80;86.30;;;;;;5069737;28;20587;-70
2023/07/13 04:09:12;;;;;;;3.80;1.90;;;15.80;86.30;;;;;;5075877;28;20545;-69
2023/07/13 04:11:38;;;;;;;2.60;1.60;;;15.80;86.30;;;;;;5094309;28;20191;-71
2023/07/13 04:14:05;;;;;;;3.10;1.37;;;15.80;86.30;;;;;;5076754;28;20241;-69
2023/07/13 04:16:32;;;;;;;4.07;1.40;;;15.90;86.30;;;;;;5059203;28;20399;-72
2023/07/13 04:19:00;;;;;;;5.57;2.13;;;16.00;86.30;;;;;;5093737;28;20483;-70
2023/07/13 04:21:30;;;;;;;3.13;1.70;;;16.00;86.30;;;;;;5099653;28;20418;-71
2023/07/13 04:23:56;;;;;;;2.23;1.37;;;16.10;86.20;;;;;;5058918;28;20499;-72
2023/07/13 04:26:22;;;;;;;3.20;1.50;;;16.10;85.90;;;;;;5088877;28;20434;-71
2023/07/13 04:28:49;;;;;;;3.03;1.63;;;16.20;85.70;;;;;;5098198;28;20212;-71
2023/07/13 04:31:14;;;;;;;2.13;1.33;;;16.30;85.40;;;;;;5060612;28;20497;-70
2023/07/13 04:33:40;;;;;;;3.20;1.40;;;16.30;85.10;;;;;;5099148;28;20497;-70
2023/07/13 04:36:09;;;;;;;2.40;1.43;;;16.40;85.00;;;;;;5098388;28;20453;-72
2023/07/13 04:38:35;;;;;;;4.00;2.03;;;16.40;84.80;;;;;;5097527;28;20668;-72
2023/07/13 04:41:04;;;;;;;5.70;1.70;;;16.50;85.00;;;;;;5098081;28;20452;-72
2023/07/13 04:43:31;;;;;;;5.63;1.90;;;16.50;84.70;;;;;;5098403;28;20422;-71
2023/07/13 04:45:57;;;;;;;3.43;1.57;;;16.50;84.90;;;;;;5084059;28;20427;-70
2023/07/13 04:48:23;;;;;;;3.10;1.53;;;16.50;85.00;;;;;;5098606;28;20421;-71
2023/07/13 04:50:56;;;;;;;4.10;1.50;;;16.60;85.10;;;;;;5097730;28;20430;-70
2023/07/13 04:53:22;;;;;;;4.70;2.47;;;16.70;84.70;;;;;;5098111;28;20476;-73
2023/07/13 04:55:48;;;;;;;3.20;1.53;;;16.80;84.60;;;;;;5097484;28;20717;-72
2023/07/13 04:58:14;;;;;;;2.37;1.33;;;17.10;84.00;;;;;;5097184;28;20418;-71
2023/07/13 05:00:39;;;;;;;7.00;2.87;;;17.80;79.40;;;;;;5083971;28;20454;-72
2023/07/13 05:03:05;;;;;;;3.80;2.10;;;18.30;73.40;;;;;;5066655;28;20247;-71
2023/07/13 05:05:31;;;;;;;2.67;2.20;;;18.90;69.40;;;;;;5089701;28;20527;-73
2023/07/13 05:07:57;;;;;;;4.83;1.70;;;19.30;66.30;;;;;;5080133;28;20410;-73
2023/07/13 05:10:23;;;;;;;3.90;1.87;;;19.80;64.10;;;;;;5097227;28;20469;-71
2023/07/13 05:12:49;;;;;;;4.63;1.70;;;20.20;61.80;;;;;;5096688;28;20188;-72
2023/07/13 05:15:15;;;;;;;5.17;2.40;;;20.60;59.50;;;;;;5082559;28;20684;-72
2023/07/13 05:17:41;;;;;;;4.00;2.40;;;21.00;58.50;;;;;;5090999;28;20193;-71
2023/07/13 05:20:08;;;;;;;5.30;3.43;;;21.30;57.20;;;;;;5096790;28;20511;-70
2023/07/13 05:22:34;;;;;;;5.83;1.90;;;21.60;56.60;;;;;;5098114;28;20184;-73
2023/07/13 05:25:01;;;;;;;2.30;1.87;;;21.80;56.10;;;;;;5098470;28;20863;-71
2023/07/13 05:27:27;;;;;;;2.70;1.43;;;22.00;55.40;;;;;;5097351;28;20410;-73
2023/07/13 05:29:52;;;;;;;3.80;1.37;;;22.20;54.70;;;;;;5091465;28;21000;-73
2023/07/13 05:32:18;;;;;;;3.10;1.43;;;22.20;54.00;;;;;;5042362;28;20181;-72
2023/07/13 05:34:44;;;;;;;2.23;1.30;;;22.10;54.30;;;;;;5065290;28;20173;-73
2023/07/13 05:37:09;;;;;;;5.90;2.00;;;22.10;54.50;;;;;;5097670;28;20181;-73
2023/07/13 05:39:35;;;;;;;4.50;1.63;;;22.30;54.00;;;;;;5096315;28;20259;-73
2023/07/13 05:42:02;;;;;;;4.90;1.67;;;22.60;53.80;;;;;;5095773;28;20181;-71
2023/07/13 05:44:27;;;;;;;3.17;1.43;;;22.90;53.20;;;;;;5095842;28;20184;-73
2023/07/13 05:46:54;;;;;;;5.03;2.13;;;23.30;52.60;;;;;;5081847;28;20888;-72
2023/07/13 05:49:20;;;;;;;4.80;1.77;;;23.70;51.90;;;;;;5079143;28;20597;-72
2023/07/13 05:51:45;;;;;;;6.17;1.90;;;24.00;51.10;;;;;;5096503;28;20437;-72
2023/07/13 05:54:11;;;;;;;5.10;1.83;;;24.10;50.50;;;;;;5097189;28;20251;-73
2023/07/13 05:56:37;;;;;;;4.00;1.90;;;24.30;49.90;;;;;;5096184;28;20184;-72
2023/07/13 05:59:02;;;;;;;3.83;1.80;;;24.30;49.70;;;;;;5097033;28;20172;-71
2023/07/13 06:01:30;;;;;;;4.63;1.50;;;24.00;49.80;;;;;;5081764;28;20192;-72
2023/07/13 06:03:56;;;;;;;4.13;1.47;;;23.80;49.90;;;;;;5087714;28;20227;-74
2023/07/13 06:06:22;;;;;;;5.53;1.90;;;23.50;50.70;;;;;;5087464;28;20403;-71
2023/07/13 06:08:47;;;;;;;5.43;2.13;;;23.30;51.20;;;;;;5102290;28;20254;-72
2023/07/13 06:11:19;;;;;;;5.60;2.27;;;23.00;51.70;;;;;;5067682;28;20203;-73
2023/07/13 06:13:45;;;;;;;5.90;2.13;;;22.80;52.10;;;;;;5084918;28;20193;-72
2023/07/13 06:16:11;;;;;;;4.50;2.27;;;22.50;52.70;;;;;;5077257;28;20865;-74
2023/07/13 06:18:37;;;;;;;4.23;1.97;;;21.90;54.20;;;;;;5084933;28;20426;-74
2023/07/13 06:21:17;;;;;;;8.57;2.30;;;21.80;54.80;;;;;;5103618;28;20430;-74
2023/07/13 06:23:45;;;;;;;5.83;2.07;;;21.80;55.10;;;;;;5103564;28;20418;-72
2023/07/13 06:26:11;;;;;;;6.73;2.63;;;21.90;54.90;;;;;;5085506;28;20402;-74
2023/07/13 06:28:37;;;;;;;6.70;2.27;;;21.90;54.60;;;;;;5103299;28;20429;-73
2023/07/13 06:31:06;;;;;;;6.70;2.17;;;22.00;54.80;;;;;;5075139;28;20454;-73
2023/07/13 06:33:32;;;;;;;9.83;2.43;;;21.80;55.10;;;;;;5076420;28;20426;-73
2023/07/13 06:35:58;;;;;;;4.90;2.20;;;21.70;55.60;;;;;;5070262;28;20474;-73
2023/07/13 06:38:24;;;;;;;4.60;2.00;;;21.80;55.70;;;;;;5105353;28;20513;-73
2023/07/13 06:40:49;;;;;;;4.63;1.90;;;21.90;55.50;;;;;;5086393;28;20387;-76
2023/07/13 06:43:15;;;;;;;4.30;1.80;;;22.00;55.20;;;;;;5070884;28;20168;-76
2023/07/13 06:45:49;;;;;;;8.03;2.10;;;22.10;55.00;;;;;;5084885;28;20216;-73
2023/07/13 06:48:15;;;;;;;5.60;2.57;;;22.10;54.90;;;;;;5075889;28;20271;-77
2023/07/13 06:50:42;;;;;;;5.70;1.67;;;22.20;55.00;;;;;;5071648;28;20469;-74
2023/07/13 06:53:09;;;;;;;5.40;2.23;;;22.50;54.80;;;;;;5089164;28;20417;-77
2023/07/13 06:55:35;;;;;;;3.70;2.07;;;22.80;54.20;;;;;;5085345;28;20427;-71
2023/07/13 06:58:00;;;;;;;8.27;2.47;;;22.80;54.00;;;;;;5085366;28;20426;-76
2023/07/13 07:00:26;;;;;;;9.13;2.73;;;22.90;53.80;;;;;;5058696;28;20296;-72
2023/07/13 07:02:52;;;;;;;3.30;1.77;;;22.60;53.60;;;;;;5089623;28;20191;-72
2023/07/13 07:05:17;;;;;;;8.63;2.13;;;22.10;54.70;;;;;;5072192;28;20228;-74
2023/07/13 07:07:43;;;;;;;7.70;2.00;;;21.90;55.50;;;;;;5059338;28;20277;-76
2023/07/13 07:10:08;;;;;;;4.93;2.00;;;21.80;55.70;;;;;;5057878;28;20243;-77
2023/07/13 07:12:34;;;;;;;5.30;2.40;;;21.90;55.90;;;;;;5067836;28;20173;-75
2023/07/13 07:15:00;;;;;;;9.77;3.07;;;21.80;55.90;;;;;;5058883;28;20243;-75
2023/07/13 07:17:26;;;;;;;6.30;2.63;;;21.70;56.10;;;;;;5051533;28;20174;-73
2023/07/13 07:19:53;;;;;;;8.10;4.10;;;21.70;56.50;;;;;;5075754;28;20211;-73
2023/07/13 07:22:20;;;;;;;8.97;2.90;;;21.80;56.40;;;;;;5091342;28;20259;-73
2023/07/13 07:24:46;;;;;;;6.27;2.33;;;21.80;55.80;;;;;;5075949;28;20493;-74
2023/07/13 07:27:12;;;;;;;4.17;2.07;;;21.80;56.20;;;;;;5060132;28;20502;-74
2023/07/13 07:29:37;;;;;;;6.20;2.53;;;21.80;56.10;;;;;;5091650;28;20247;-75
2023/07/13 07:32:03;;;;;;;9.93;3.80;;;21.90;56.20;;;;;;5067475;28;20189;-74
2023/07/13 07:34:30;;;;;;;7.77;2.63;;;22.00;56.20;;;;;;5050352;28;20264;-75
2023/07/13 07:37:01;;;;;;;7.20;2.43;;;22.20;55.90;;;;;;5065916;28;20169;-75
2023/07/13 07:39:27;;;;;;;5.27;2.17;;;22.40;55.60;;;;;;5066006;28;20452;-75
2023/07/13 07:41:53;;;;;;;7.10;1.97;;;22.70;55.00;;;;;;5051368;28;20866;-72
2023/07/13 07:44:19;;;;;;;4.03;1.97;;;22.80;54.70;;;;;;5087107;28;20502;-75
2023/07/13 07:46:44;;;;;;;6.23;2.10;;;22.80;54.60;;;;;;5037119;28;20197;-74
2023/07/13 07:49:10;;;;;;;6.60;2.13;;;22.90;54.50;;;;;;5062016;28;20228;-75
2023/07/13 07:51:36;;;;;;;5.77;2.40;;;22.90;54.20;;;;;;5054167;28;20204;-75
2023/07/13 07:54:02;;;;;;;10.93;2.87;;;22.60;54.40;;;;;;5080207;28;20166;-77
2023/07/13 07:56:28;;;;;;;5.40;2.27;;;22.20;55.40;;;;;;5067284;28;20403;-73
2023/07/13 07:58:54;;;;;;;5.43;1.93;;;22.10;55.90;;;;;;5068293;28;20420;-75
2023/07/13 08:01:20;;;;;;;5.73;2.20;;;22.40;55.90;;;;;;5074309;28;20192;-75
2023/07/13 08:03:45;;;;;;;4.27;2.00;;;22.60;55.00;;;;;;5037762;28;20222;-75
2023/07/13 08:06:11;;;;;;;7.73;2.57;;;22.80;54.90;;;;;;5063506;28;20215;-75
2023/07/13 08:08:36;;;;;;;5.07;3.03;;;23.00;54.10;;;;;;5070910;28;20268;-73
2023/07/13 08:11:07;;;;;;;8.63;2.17;;;22.90;54.40;;;;;;5080223;28;20205;-74
2023/07/13 08:13:33;;;;;;;6.90;2.30;;;22.60;54.80;;;;;;5051867;28;20188;-76
2023/07/13 08:15:59;;;;;;;5.13;2.13;;;22.50;55.50;;;;;;5056217;28;20445;-75
2023/07/13 08:18:25;;;;;;;5.93;2.00;;;22.70;55.50;;;;;;5061861;28;20439;-76
2023/07/13 08:20:51;;;;;;;6.40;3.50;;;23.00;55.10;;;;;;5091188;28;20420;-75
2023/07/13 08:23:17;;;;;;;8.17;2.50;;;23.30;54.40;;;;;;5091309;28;20185;-77
2023/07/13 08:25:49;;;;;;;5.40;2.30;;;23.40;53.70;;;;;;5092820;28;20233;-77
2023/07/13 08:28:15;;;;;;;8.07;2.57;;;23.60;53.50;;;;;;5071318;28;20453;-76
2023/07/13 08:30:41;;;;;;;3.07;2.10;;;23.70;53.20;;;;;;5070744;28;20472;-75
2023/07/13 08:33:06;;;;;;;5.70;2.43;;;23.70;53.30;;;;;;5031744;28;20203;-75
2023/07/13 08:35:32;;;;;;;6.80;1.90;;;23.80;53.10;;;;;;5047743;28;20197;-73
2023/07/13 08:37:58;;;;;;;6.83;2.90;;;23.90;52.70;;;;;;5064332;28;20203;-75
2023/07/13 08:40:27;;;;;;;7.10;2.70;;;24.00;51.90;;;;;;5091914;28;20197;-76
2023/07/13 08:42:58;;;;;;;4.57;2.70;;;24.00;52.30;;;;;;5089920;28;20165;-74
2023/07/13 08:45:33;;;;;;;8.60;2.60;;;24.20;51.70;;;;;;5076949;28;20838;-78
2023/07/13 08:48:22;;;;;;;4.83;2.43;;;24.40;51.20;;;;;;5049183;28;20428;-76
2023/07/13 08:51:04;;;;;;;9.17;3.00;;;24.60;50.70;;;;;;5048334;28;20525;-72
2023/07/13 08:53:39;;;;;;;5.63;2.17;;;24.70;50.60;;;;;;5078792;28;20446;-72
2023/07/13 08:56:16;;;;;;;5.33;2.33;;;24.70;50.00;;;;;;5056626;28;20438;-75
2023/07/13 08:58:43;;;;;;;2.63;1.40;;;24.70;50.30;;;;;;5069166;28;20439;-77
2023/07/13 09:01:29;;;;;;;5.17;1.93;;;24.90;50.10;;;;;;5072930;28;20428;-75
2023/07/13 09:04:06;;;;;;;7.70;2.00;;;24.90;50.00;;;;;;5072742;28;20539;-74
2023/07/13 09:06:49;;;;;;;4.07;1.80;;;24.60;50.00;;;;;;5053626;28;20428;-77
2023/07/13 09:09:33;;;;;;;5.63;3.03;;;24.40;50.20;;;;;;5056919;28;20464;-74
2023/07/13 09:12:09;;;;;;;5.70;2.10;;;24.30;50.40;;;;;;5050102;28;20462;-74
2023/07/13 09:14:49;;;;;;;5.33;1.80;;;24.30;50.20;;;;;;5081644;28;20415;-75
2023/07/13 09:17:23;;;;;;;6.13;2.23;;;24.10;50.50;;;;;;5047740;28;20468;-76
2023/07/13 09:19:58;;;;;;;6.33;2.40;;;24.00;50.50;;;;;;5046116;28;20441;-76
2023/07/13 09:22:27;;;;;;;7.87;2.47;;;23.80;50.70;;;;;;5048045;28;20441;-75
2023/07/13 09:25:12;;;;;;;6.60;2.50;;;24.00;50.80;;;;;;5045370;28;20949;-75
2023/07/13 09:27:46;;;;;;;5.00;2.17;;;24.10;50.90;;;;;;5053277;28;20428;-76
2023/07/13 09:30:14;;;;;;;16.63;2.93;;;24.30;50.50;;;;;;5036057;28;20507;-75
2023/07/13 09:32:47;;;;;;;7.67;2.77;;;24.30;50.20;;;;;;5082928;28;20415;-72
2023/07/13 09:35:20;;;;;;;4.93;2.50;;;24.00;50.60;;;;;;5057688;28;20423;-74
2023/07/13 09:37:47;;;;;;;6.90;2.70;;;24.10;51.30;;;;;;5087108;28;20726;-74
2023/07/13 09:40:44;;;;;;;4.30;1.90;;;24.00;50.60;;;;;;5053169;28;20452;-75
2023/07/13 09:43:13;;;;;;;4.10;1.90;;;23.80;51.00;;;;;;5045776;28;20436;-76
2023/07/13 09:45:39;;;;;;;4.83;2.13;;;24.20;50.70;;;;;;5059421;28;20453;-74
2023/07/13 09:48:12;;;;;;;5.87;2.40;;;24.40;49.40;;;;;;5047717;28;20471;-76
2023/07/13 09:50:38;;;;;;;8.40;2.93;;;24.50;49.20;;;;;;5044722;28;20460;-78
2023/07/13 09:53:03;;;;;;;5.90;2.37;;;24.50;49.90;;;;;;5060328;28;20447;-76
2023/07/13 09:55:34;;;;;;;8.03;3.03;;;24.80;49.40;;;;;;5052075;28;20181;-73
2023/07/13 09:58:19;;;;;;;4.57;2.03;;;24.70;48.90;;;;;;5083249;28;20192;-75
2023/07/13 10:01:02;;;;;;;5.80;2.50;;;24.70;48.40;;;;;;5061076;28;20444;-74
2023/07/13 10:03:37;;;;;;;4.87;1.80;;;24.30;49.50;;;;;;5049176;28;20790;-74
2023/07/13 10:06:18;;;;;;;9.50;2.80;;;24.60;48.90;;;;;;5048890;28;20420;-74
2023/07/13 10:08:49;;;;;;;8.27;2.57;;;24.70;48.70;;;;;;5068070;28;20532;-75
2023/07/13 10:11:25;;;;;;;3.00;1.20;;;24.70;48.60;;;;;;5057231;28;20462;-73
2023/07/13 10:13:57;;;;;;;8.97;2.13;;;24.70;47.30;;;;;;5087489;28;20422;-74
2023/07/13 10:16:27;;;;;;;5.50;2.10;;;24.90;46.20;;;;;;5079862;28;20412;-74
2023/07/13 10:19:17;;;;;;;3.63;1.93;;;25.20;45.90;;;;;;5071613;28;20471;-75
2023/07/13 10:21:58;;;;;;;5.20;2.07;;;25.40;46.10;;;;;;5050575;28;20405;-73
2023/07/13 10:24:26;;;;;;;6.67;1.83;;;25.50;45.80;;;;;;5050333;28;20408;-75
2023/07/13 10:27:04;;;;;;;6.47;2.57;;;25.30;45.90;;;;;;5082706;28;20399;-75
2023/07/13 10:29:36;;;;;;;5.10;2.03;;;25.20;46.00;;;;;;5089606;28;20474;-75
2023/07/13 10:32:04;;;;;;;3.77;2.30;;;25.20;46.10;;;;;;5063150;28;20410;-75
2023/07/13 10:34:31;;;;;;;4.23;1.67;;;24.90;46.60;;;;;;5105960;28;20418;-76
2023/07/13 10:36:56;;;;;;;7.30;2.00;;;25.00;46.30;;;;;;5051462;28;20420;-75
2023/07/13 10:39:27;;;;;;;2.90;1.53;;;24.90;46.20;;;;;;5032731;28;20495;-73
2023/07/13 10:42:03;;;;;;;7.30;2.70;;;24.90;46.20;;;;;;5080088;28;20440;-74
2023/07/13 10:44:32;;;;;;;4.83;1.80;;;25.10;46.10;;;;;;5071540;28;20505;-77
2023/07/13 10:47:01;;;;;;;5.10;2.47;;;25.10;46.40;;;;;;5074592;28;20451;-73
2023/07/13 10:49:29;;;;;;;6.37;2.07;;;24.90;46.60;;;;;;5077022;28;20471;-75
2023/07/13 10:51:55;;;;;;;4.40;1.97;;;24.90;46.90;;;;;;5071610;28;20400;-75
2023/07/13 10:54:27;;;;;;;5.13;1.80;;;24.90;47.00;;;;;;5033799;28;20405;-75
2023/07/13 10:57:09;;;;;;;7.23;2.13;;;24.80;47.10;;;;;;5066860;28;20418;-78
2023/07/13 10:59:35;;;;;;;5.47;2.37;;;25.00;46.80;;;;;;5095233;28;20528;-77
2023/07/13 11:02:06;;;;;;;5.23;2.27;;;25.30;45.80;;;;;;5067184;28;20431;-76
2023/07/13 11:04:44;;;;;;;6.70;2.00;;;25.60;44.60;;;;;;5071640;28;20227;-77
2023/07/13 11:07:22;;;;;;;4.17;2.23;;;25.60;45.10;;;;;;5065776;28;20416;-78
2023/07/13 11:09:56;;;;;;;5.67;2.60;;;25.00;45.80;;;;;;5036198;28;20521;-76
2023/07/13 11:12:22;;;;;;;5.70;2.20;;;24.70;46.70;;;;;;5053184;28;20461;-75
2023/07/13 11:15:06;;;;;;;9.67;2.93;;;24.40;47.20;;;;;;5053759;28;20447;-77
2023/07/13 11:17:58;;;;;;;8.03;2.30;;;24.00;48.10;;;;;;5050735;28;20216;-77
2023/07/13 11:20:33;;;;;;;4.93;2.17;;;23.80;48.70;;;;;;5070686;28;20447;-77
2023/07/13 11:23:28;;;;;;;5.37;2.07;;;23.70;49.00;;;;;;5036170;28;20430;-75
2023/07/13 11:25:54;;;;;;;5.30;2.07;;;23.80;49.00;;;;;;5050329;28;20420;-75
2023/07/13 11:28:25;;;;;;;6.40;2.97;;;24.10;48.90;;;;;;5068842;28;20419;-73
2023/07/13 11:30:56;;;;;;;6.40;2.37;;;24.30;49.00;;;;;;5052464;28;20623;-76
2023/07/13 11:33:40;;;;;;;6.03;2.30;;;24.70;48.40;;;;;;5060533;28;20493;-78
2023/07/13 11:36:12;;;;;;;4.10;1.90;;;24.90;45.70;;;;;;5073183;28;20436;-77
2023/07/13 11:38:43;;;;;;;3.53;1.67;;;24.90;45.70;;;;;;5041893;28;20478;-76
2023/07/13 11:41:31;;;;;;;5.40;2.10;;;24.90;45.50;;;;;;5074007;28;20432;-75
2023/07/13 11:44:21;;;;;;;8.33;3.10;;;24.70;46.00;;;;;;5054805;28;20413;-74
2023/07/13 11:46:56;;;;;;;4.00;2.20;;;24.30;47.00;;;;;;5091516;28;20411;-77
2023/07/13 11:49:24;;;;;;;2.90;1.70;;;24.30;47.30;;;;;;5059206;28;20464;-77
2023/07/13 11:51:54;;;;;;;10.07;3.10;;;24.20;47.50;;;;;;5093400;28;20454;-75
2023/07/13 11:54:33;;;;;;;5.83;2.07;;;24.10;48.20;;;;;;5095181;28;20414;-75
2023/07/13 11:57:06;;;;;;;12.10;3.77;;;24.20;48.30;;;;;;5067841;28;20523;-76
2023/07/13 11:59:33;;;;;;;5.50;2.50;;;24.40;48.30;;;;;;5059464;28;20452;-75
2023/07/13 12:01:59;;;;;;;4.10;1.90;;;24.70;47.90;;;;;;5065249;28;20435;-76
2023/07/13 12:04:32;;;;;;;3.53;1.70;;;25.10;47.40;;;;;;5099215;28;20486;-77
2023/07/13 12:07:15;;;;;;;7.70;2.43;;;25.40;46.90;;;;;;5103111;28;20422;-77
2023/07/13 12:09:41;;;;;;;9.17;2.80;;;25.60;46.20;;;;;;5042554;28;20455;-76
2023/07/13 12:12:18;;;;;;;7.80;4.10;;;25.70;45.10;;;;;;5044823;28;20454;-78
2023/07/13 12:14:44;;;;;;;5.03;2.00;;;25.60;45.50;;;;;;5071318;28;20413;-74
2023/07/13 12:17:23;;;;;;;6.20;2.43;;;25.50;45.00;;;;;;5054544;28;20450;-76
2023/07/13 12:19:51;;;;;;;4.90;1.80;;;25.60;44.90;;;;;;5043414;28;20261;-75
2023/07/13 12:22:19;;;;;;;5.30;2.93;;;25.50;44.80;;;;;;5094882;28;20849;-78
2023/07/13 12:24:46;;;;;;;5.10;1.87;;;25.60;44.60;;;;;;5086829;28;20443;-77
2023/07/13 12:27:24;;;;;;;7.10;1.80;;;25.70;43.70;;;;;;5074808;28;20517;-73
2023/07/13 12:29:58;;;;;;;5.00;2.17;;;25.80;43.30;;;;;;5069790;28;20479;-77
2023/07/13 12:32:25;;;;;;;3.73;2.03;;;25.60;43.50;;;;;;5073004;28;20437;-75
2023/07/13 12:35:00;;;;;;;3.57;1.90;;;25.70;43.70;;;;;;5086641;28;20395;-77
2023/07/13 12:37:26;;;;;;;3.23;1.77;;;25.90;43.40;;;;;;5051298;28;20675;-73
2023/07/13 12:39:52;;;;;;;5.30;2.40;;;26.20;43.30;;;;;;5056394;28;20442;-76
2023/07/13 12:42:27;;;;;;;5.87;1.97;;;25.90;42.90;;;;;;5056173;28;20179;-77
2023/07/13 12:45:16;;;;;;;5.10;1.70;;;25.70;43.40;;;;;;5088155;28;20431;-77
2023/07/13 12:47:43;;;;;;;5.97;1.93;;;25.50;43.70;;;;;;5062005;28;20399;-74
2023/07/13 12:50:21;;;;;;;6.40;1.60;;;25.40;43.60;;;;;;5109730;28;20454;-77
2023/07/13 12:52:53;;;;;;;3.20;1.97;;;25.40;43.30;;;;;;5079997;28;20406;-77
2023/07/13 12:55:20;;;;;;;3.10;1.50;;;25.30;43.60;;;;;;5095377;28;20467;-78